Time;durP1;ratioP1;P1;durP2;ratioP2;P2;SDS_P1;SDS_P2;PMS_P1;PMS_P2;Temp;Humidity;BMP_temperature;BMP_pressure;BME280_temperature;BME280_humidity;BME280_pressure;Samples;Min_cycle;Max_cycle;Signal;HPM_P1;HPM_P2
2022/11/25 00:00:27;;;;;;;;;3.00;3.00;;;;;;;;5011959;28;9724;-81
2022/11/25 00:02:55;;;;;;;;;3.50;3.50;;;;;;;;5010018;28;9640;-81
2022/11/25 00:05:27;;;;;;;;;5.00;3.75;;;;;;;;4993622;28;9616;-82
2022/11/25 00:07:56;;;;;;;;;5.00;3.50;;;;;;;;4997508;28;10343;-81
2022/11/25 00:10:24;;;;;;;;;2.75;2.75;;;;;;;;4995791;28;9795;-81
2022/11/25 00:12:52;;;;;;;;;3.00;3.00;;;;;;;;5012292;28;9714;-81
2022/11/25 00:15:19;;;;;;;;;2.50;2.50;;;;;;;;4996598;28;9658;-82
2022/11/25 00:17:47;;;;;;;;;3.50;2.00;;;;;;;;5012716;28;9684;-81
2022/11/25 00:20:15;;;;;;;;;3.00;3.00;;;;;;;;5009504;28;9467;-81
2022/11/25 00:22:44;;;;;;;;;2.00;2.00;;;;;;;;5014312;28;9466;-80
2022/11/25 00:25:12;;;;;;;;;1.75;1.75;;;;;;;;5016442;28;9621;-81
2022/11/25 00:27:40;;;;;;;;;2.50;2.50;;;;;;;;5011802;28;10221;-80
2022/11/25 00:30:08;;;;;;;;;2.00;1.00;;;;;;;;5002307;28;9614;-80
2022/11/25 00:32:36;;;;;;;;;2.00;2.00;;;;;;;;5033232;28;9496;-80
2022/11/25 00:35:04;;;;;;;;;1.75;1.75;;;;;;;;5017188;28;9551;-80
2022/11/25 00:37:35;;;;;;;;;1.75;1.75;;;;;;;;5007087;28;9615;-80
2022/11/25 00:40:06;;;;;;;;;2.50;2.00;;;;;;;;5027081;28;9522;-80
2022/11/25 00:45:18;;;;;;;;;1.00;1.00;;;;;;;;5024486;28;9444;-81
2022/11/25 00:47:46;;;;;;;;;1.00;1.00;;;;;;;;5014320;28;9358;-81
2022/11/25 00:50:14;;;;;;;;;1.00;1.00;;;;;;;;5013520;28;9410;-81
2022/11/25 00:52:41;;;;;;;;;0.75;0.75;;;;;;;;5014329;28;9507;-80
2022/11/25 00:55:11;;;;;;;;;0.50;0.50;;;;;;;;5014469;28;9456;-81
2022/11/25 00:57:38;;;;;;;;;2.00;2.00;;;;;;;;5007601;28;9568;-80
2022/11/25 01:00:08;;;;;;;;;1.00;1.00;;;;;;;;5012686;28;9593;-81
2022/11/25 01:02:35;;;;;;;;;2.00;2.00;;;;;;;;4994014;28;9554;-81
2022/11/25 01:05:03;;;;;;;;;1.75;0.00;;;;;;;;5008167;28;9644;-80
2022/11/25 01:07:31;;;;;;;;;1.00;1.00;;;;;;;;5012761;28;9511;-81
2022/11/25 01:09:58;;;;;;;;;1.25;0.75;;;;;;;;5007399;28;9515;-80
2022/11/25 01:12:28;;;;;;;;;2.00;2.00;;;;;;;;5010627;28;9383;-81
2022/11/25 01:14:55;;;;;;;;;2.25;1.50;;;;;;;;5010119;28;10381;-81
2022/11/25 01:17:23;;;;;;;;;1.50;1.50;;;;;;;;4996051;28;9547;-82
2022/11/25 01:19:51;;;;;;;;;0.25;0.25;;;;;;;;4994445;28;9639;-81
2022/11/25 01:22:18;;;;;;;;;1.50;1.50;;;;;;;;5009835;28;9606;-81
2022/11/25 01:24:46;;;;;;;;;0.25;0.25;;;;;;;;5008126;28;9598;-81
2022/11/25 01:27:14;;;;;;;;;4.75;2.00;;;;;;;;5011693;28;10221;-80
2022/11/25 01:29:43;;;;;;;;;2.50;2.00;;;;;;;;4979439;28;9621;-81
2022/11/25 01:32:11;;;;;;;;;1.00;1.00;;;;;;;;4993552;28;9687;-81
2022/11/25 01:34:39;;;;;;;;;1.50;1.00;;;;;;;;5005944;28;9687;-81
2022/11/25 01:37:06;;;;;;;;;2.00;2.00;;;;;;;;5012533;28;10402;-80
2022/11/25 01:39:34;;;;;;;;;3.00;1.00;;;;;;;;5008872;28;9699;-80
2022/11/25 01:42:02;;;;;;;;;1.25;1.25;;;;;;;;4994806;28;9614;-80
2022/11/25 01:44:31;;;;;;;;;1.00;1.00;;;;;;;;4992802;28;9659;-79
2022/11/25 01:47:06;;;;;;;;;2.00;2.00;;;;;;;;5011721;28;9614;-81
2022/11/25 01:49:39;;;;;;;;;4.25;1.50;;;;;;;;5011264;28;10423;-80
2022/11/25 01:52:15;;;;;;;;;2.50;1.00;;;;;;;;5011864;28;9554;-80
2022/11/25 01:54:47;;;;;;;;;2.25;2.25;;;;;;;;5013159;28;9558;-81
2022/11/25 01:57:20;;;;;;;;;1.50;1.25;;;;;;;;4990577;28;9528;-81
2022/11/25 01:59:52;;;;;;;;;2.00;1.75;;;;;;;;4976375;28;10321;-80
2022/11/25 02:02:21;;;;;;;;;2.00;2.00;;;;;;;;4995528;28;9624;-79
2022/11/25 02:04:49;;;;;;;;;1.00;1.00;;;;;;;;5011572;28;9574;-82
2022/11/25 02:07:23;;;;;;;;;1.25;1.25;;;;;;;;5008721;28;9584;-82
2022/11/25 02:09:51;;;;;;;;;2.50;1.00;;;;;;;;5011580;28;9622;-81
2022/11/25 02:12:19;;;;;;;;;0.00;0.00;;;;;;;;4994710;28;9604;-81
2022/11/25 02:14:48;;;;;;;;;0.25;0.25;;;;;;;;5009814;28;9642;-82
2022/11/25 02:17:15;;;;;;;;;1.00;1.00;;;;;;;;5010087;28;9776;-82
2022/11/25 02:20:02;;;;;;;;;2.00;1.25;;;;;;;;5006936;28;9652;-80
2022/11/25 02:22:40;;;;;;;;;2.00;2.00;;;;;;;;5011603;28;9903;-81
2022/11/25 02:25:15;;;;;;;;;1.00;1.00;;;;;;;;4993307;28;9826;-80
2022/11/25 02:27:44;;;;;;;;;0.75;0.75;;;;;;;;4993867;28;9678;-81
2022/11/25 02:30:14;;;;;;;;;1.00;1.00;;;;;;;;5014439;28;9697;-80
2022/11/25 02:32:44;;;;;;;;;1.00;1.00;;;;;;;;5013860;28;9877;-80
2022/11/25 02:35:26;;;;;;;;;0.00;0.00;;;;;;;;5013763;28;9861;-81
2022/11/25 02:37:57;;;;;;;;;1.25;1.00;;;;;;;;5016282;28;9841;-80
2022/11/25 02:40:27;;;;;;;;;1.00;1.00;;;;;;;;5015234;28;9847;-81
2022/11/25 02:42:58;;;;;;;;;1.00;1.00;;;;;;;;5015201;28;9802;-80
2022/11/25 02:45:34;;;;;;;;;1.00;1.00;;;;;;;;5014004;28;9946;-80
2022/11/25 02:48:01;;;;;;;;;3.25;1.50;;;;;;;;5010292;28;10009;-80
2022/11/25 02:50:29;;;;;;;;;1.00;1.00;;;;;;;;5010084;28;10039;-80
2022/11/25 02:52:56;;;;;;;;;1.75;1.75;;;;;;;;4991520;28;9942;-79
2022/11/25 02:55:26;;;;;;;;;2.25;1.00;;;;;;;;4994366;28;10107;-79
2022/11/25 02:57:53;;;;;;;;;1.00;1.00;;;;;;;;4993874;28;10070;-79
2022/11/25 03:00:21;;;;;;;;;3.00;1.75;;;;;;;;4978658;28;9952;-79
2022/11/25 03:02:49;;;;;;;;;1.00;1.00;;;;;;;;5016157;28;10117;-80
2022/11/25 03:05:18;;;;;;;;;2.00;2.00;;;;;;;;5009645;28;10101;-80
2022/11/25 03:07:45;;;;;;;;;0.00;0.00;;;;;;;;4981932;28;10075;-80
2022/11/25 03:10:13;;;;;;;;;2.00;2.00;;;;;;;;5018761;28;10067;-80
2022/11/25 03:12:42;;;;;;;;;1.00;1.00;;;;;;;;4999316;28;10222;-79
2022/11/25 03:15:11;;;;;;;;;0.00;0.00;;;;;;;;5017928;28;10075;-80
2022/11/25 03:17:38;;;;;;;;;2.25;1.00;;;;;;;;4995946;28;10041;-79
2022/11/25 03:20:07;;;;;;;;;1.00;1.00;;;;;;;;5016172;28;9975;-80
2022/11/25 03:22:35;;;;;;;;;2.25;1.00;;;;;;;;5018646;28;9937;-81
2022/11/25 03:25:02;;;;;;;;;2.50;0.25;;;;;;;;5000957;28;9746;-81
2022/11/25 03:27:30;;;;;;;;;2.00;0.00;;;;;;;;5017197;28;9862;-81
2022/11/25 03:29:59;;;;;;;;;1.00;1.00;;;;;;;;5018341;28;9675;-81
2022/11/25 03:32:27;;;;;;;;;0.75;0.75;;;;;;;;5011613;28;9952;-81
2022/11/25 03:34:54;;;;;;;;;0.75;0.75;;;;;;;;4980980;28;9907;-81
2022/11/25 03:37:22;;;;;;;;;0.25;0.25;;;;;;;;4992519;28;9734;-81
2022/11/25 03:39:49;;;;;;;;;1.00;1.00;;;;;;;;4998775;28;9829;-81
2022/11/25 03:42:17;;;;;;;;;1.00;1.00;;;;;;;;5009260;28;9878;-81
2022/11/25 03:44:45;;;;;;;;;1.00;1.00;;;;;;;;5022894;28;10027;-80
2022/11/25 03:47:14;;;;;;;;;0.50;0.50;;;;;;;;5017524;28;10068;-80
2022/11/25 03:49:42;;;;;;;;;1.75;1.00;;;;;;;;5004217;28;9834;-79
2022/11/25 03:52:09;;;;;;;;;1.00;0.75;;;;;;;;5021211;28;10804;-79
2022/11/25 03:54:38;;;;;;;;;1.00;1.00;;;;;;;;5020313;28;10040;-79
2022/11/25 03:57:06;;;;;;;;;2.50;1.00;;;;;;;;5013114;28;10066;-80
2022/11/25 03:59:35;;;;;;;;;1.00;1.00;;;;;;;;4999684;28;10809;-79
2022/11/25 04:02:02;;;;;;;;;1.00;1.00;;;;;;;;5011215;28;10174;-80
2022/11/25 04:04:32;;;;;;;;;1.75;0.25;;;;;;;;5017010;28;10100;-80
2022/11/25 04:06:59;;;;;;;;;1.50;1.00;;;;;;;;5011899;28;10331;-80
2022/11/25 04:09:27;;;;;;;;;0.75;0.75;;;;;;;;5010202;28;10235;-81
2022/11/25 04:14:39;;;;;;;;;1.00;1.00;;;;;;;;5018473;28;10317;-80
2022/11/25 04:17:07;;;;;;;;;1.50;1.00;;;;;;;;5014943;28;10159;-82
2022/11/25 04:19:36;;;;;;;;;2.00;2.00;;;;;;;;5016491;28;10221;-80
2022/11/25 04:22:04;;;;;;;;;0.00;0.00;;;;;;;;5010315;28;10419;-80
2022/11/25 04:24:32;;;;;;;;;1.25;1.00;;;;;;;;5014349;28;10301;-80
2022/11/25 04:27:00;;;;;;;;;0.75;0.00;;;;;;;;4999893;28;10261;-79
2022/11/25 04:29:28;;;;;;;;;2.00;2.00;;;;;;;;4981575;28;10350;-82
2022/11/25 04:31:55;;;;;;;;;1.00;1.00;;;;;;;;5014922;28;10298;-81
2022/11/25 04:34:23;;;;;;;;;1.50;0.50;;;;;;;;5000735;28;10220;-81
2022/11/25 04:36:56;;;;;;;;;2.25;2.00;;;;;;;;4995958;28;10235;-81
2022/11/25 04:39:23;;;;;;;;;1.00;1.00;;;;;;;;4999457;28;10354;-80
2022/11/25 04:42:30;;;;;;;;;3.50;1.00;;;;;;;;5018838;28;10308;-81
2022/11/25 04:44:39;;;;;;;;;4.00;1.00;;;;;;;;5017245;28;10235;-81
2022/11/25 04:47:07;;;;;;;;;1.25;1.25;;;;;;;;4997711;28;10319;-81
2022/11/25 04:49:34;;;;;;;;;2.75;1.75;;;;;;;;5010158;28;10336;-81
2022/11/25 04:52:04;;;;;;;;;4.00;2.00;;;;;;;;4995834;28;10225;-80
2022/11/25 04:54:31;;;;;;;;;0.75;0.75;;;;;;;;4999200;28;10323;-79
2022/11/25 04:57:00;;;;;;;;;3.00;1.00;;;;;;;;5013799;28;10123;-80
2022/11/25 04:59:40;;;;;;;;;2.50;1.00;;;;;;;;5013559;28;10181;-80
2022/11/25 05:02:11;;;;;;;;;2.50;2.25;;;;;;;;5025284;28;10198;-79
2022/11/25 05:04:38;;;;;;;;;2.00;1.00;;;;;;;;5035516;28;10220;-80
2022/11/25 05:07:08;;;;;;;;;1.25;0.00;;;;;;;;5028084;28;10202;-80
2022/11/25 05:09:36;;;;;;;;;2.00;1.00;;;;;;;;5026716;28;10080;-80
2022/11/25 05:12:04;;;;;;;;;1.00;1.00;;;;;;;;5009771;28;10152;-80
2022/11/25 05:14:31;;;;;;;;;5.25;1.00;;;;;;;;5026179;28;10325;-80
2022/11/25 05:16:59;;;;;;;;;1.00;1.00;;;;;;;;5007190;28;10366;-80
2022/11/25 05:19:26;;;;;;;;;4.00;2.00;;;;;;;;5004034;28;10284;-80
2022/11/25 05:21:54;;;;;;;;;1.00;1.00;;;;;;;;5024319;28;10234;-81
2022/11/25 05:24:24;;;;;;;;;0.75;0.75;;;;;;;;5006245;28;10347;-80
2022/11/25 05:26:52;;;;;;;;;1.00;1.00;;;;;;;;5017667;28;11098;-80
2022/11/25 05:29:20;;;;;;;;;2.00;1.00;;;;;;;;5018362;28;10167;-81
2022/11/25 05:31:48;;;;;;;;;0.50;0.50;;;;;;;;5011460;28;10331;-80
2022/11/25 05:34:15;;;;;;;;;1.25;1.25;;;;;;;;4985051;28;10222;-82
2022/11/25 05:36:46;;;;;;;;;2.00;2.00;;;;;;;;5021981;28;10304;-80
2022/11/25 05:39:16;;;;;;;;;2.25;1.25;;;;;;;;5025195;28;10235;-79
2022/11/25 05:41:46;;;;;;;;;1.50;1.50;;;;;;;;5040032;28;10420;-79
2022/11/25 05:44:15;;;;;;;;;1.00;1.00;;;;;;;;5028516;28;11300;-79
2022/11/25 05:46:45;;;;;;;;;1.50;1.50;;;;;;;;5000424;28;10190;-81
2022/11/25 05:49:13;;;;;;;;;1.25;1.00;;;;;;;;5015589;28;10303;-81
2022/11/25 05:51:41;;;;;;;;;2.50;1.00;;;;;;;;5006861;28;10229;-81
2022/11/25 05:54:09;;;;;;;;;4.25;1.75;;;;;;;;5005437;28;10354;-81
2022/11/25 05:56:38;;;;;;;;;3.75;2.00;;;;;;;;5019432;28;10240;-81
2022/11/25 05:59:08;;;;;;;;;2.00;2.00;;;;;;;;5019899;28;10563;-82
2022/11/25 06:01:36;;;;;;;;;1.00;1.00;;;;;;;;5007104;28;10281;-82
2022/11/25 06:04:05;;;;;;;;;1.25;1.25;;;;;;;;4992806;28;10233;-81
2022/11/25 06:06:33;;;;;;;;;3.00;1.00;;;;;;;;5014254;28;10365;-82
2022/11/25 06:09:00;;;;;;;;;1.75;1.00;;;;;;;;5013769;28;10316;-82
2022/11/25 06:11:28;;;;;;;;;4.00;2.50;;;;;;;;5017826;28;10145;-81
2022/11/25 06:13:58;;;;;;;;;2.25;2.25;;;;;;;;4992416;28;11129;-81
2022/11/25 06:16:28;;;;;;;;;0.00;0.00;;;;;;;;5008729;28;10414;-80
2022/11/25 06:18:55;;;;;;;;;2.25;2.25;;;;;;;;4981647;28;10518;-77
2022/11/25 06:21:23;;;;;;;;;2.00;1.75;;;;;;;;5012410;28;10395;-76
2022/11/25 06:23:52;;;;;;;;;1.50;1.50;;;;;;;;4992071;28;10329;-76
2022/11/25 06:26:24;;;;;;;;;3.25;2.00;;;;;;;;4996630;28;10408;-77
2022/11/25 06:28:55;;;;;;;;;3.00;2.00;;;;;;;;4998950;28;10417;-76
2022/11/25 06:31:29;;;;;;;;;3.00;1.75;;;;;;;;5023617;28;10511;-75
2022/11/25 06:33:57;;;;;;;;;1.50;1.00;;;;;;;;5015982;28;10611;-75
2022/11/25 06:36:24;;;;;;;;;3.75;3.75;;;;;;;;4999863;28;10385;-76
2022/11/25 06:38:53;;;;;;;;;2.00;2.00;;;;;;;;5009145;28;10519;-76
2022/11/25 06:41:21;;;;;;;;;5.00;2.00;;;;;;;;4998744;28;10915;-77
2022/11/25 06:43:49;;;;;;;;;1.50;1.50;;;;;;;;5013614;28;10579;-78
2022/11/25 06:46:18;;;;;;;;;1.00;1.00;;;;;;;;5012856;28;10507;-78
2022/11/25 06:48:47;;;;;;;;;2.00;2.00;;;;;;;;4994040;28;10437;-77
2022/11/25 06:51:16;;;;;;;;;1.25;1.25;;;;;;;;5016151;28;10400;-78
2022/11/25 06:53:44;;;;;;;;;3.50;2.50;;;;;;;;4998072;28;10752;-81
2022/11/25 06:56:13;;;;;;;;;3.00;1.00;;;;;;;;5013367;28;10543;-74
2022/11/25 06:58:42;;;;;;;;;6.50;3.50;;;;;;;;5013783;28;10530;-77
2022/11/25 07:01:14;;;;;;;;;2.50;2.50;;;;;;;;5013321;28;10576;-78
2022/11/25 07:03:42;;;;;;;;;2.00;2.00;;;;;;;;5008893;28;10561;-77
2022/11/25 07:06:13;;;;;;;;;4.00;2.00;;;;;;;;5008292;28;10693;-75
2022/11/25 07:08:41;;;;;;;;;1.75;1.75;;;;;;;;4991645;28;10617;-76
2022/11/25 07:11:11;;;;;;;;;2.25;2.25;;;;;;;;4990226;28;10641;-76
2022/11/25 07:13:38;;;;;;;;;4.75;1.75;;;;;;;;5007807;28;10563;-75
2022/11/25 07:16:07;;;;;;;;;4.50;2.00;;;;;;;;4994511;28;10615;-76
2022/11/25 07:18:37;;;;;;;;;7.00;2.00;;;;;;;;5009537;28;10683;-76
2022/11/25 07:21:07;;;;;;;;;3.75;3.00;;;;;;;;5008595;28;10542;-75
2022/11/25 07:23:37;;;;;;;;;2.00;2.00;;;;;;;;5007741;28;10717;-76
2022/11/25 07:26:07;;;;;;;;;3.00;3.00;;;;;;;;5007217;28;10541;-74
2022/11/25 07:28:35;;;;;;;;;2.75;2.75;;;;;;;;5012722;28;10686;-76
2022/11/25 07:31:11;;;;;;;;;6.25;2.25;;;;;;;;5009708;28;10611;-77
2022/11/25 07:33:38;;;;;;;;;3.75;3.00;;;;;;;;5007726;28;10722;-75
2022/11/25 07:36:08;;;;;;;;;1.50;1.00;;;;;;;;5008716;28;10701;-76
2022/11/25 07:38:39;;;;;;;;;1.25;1.25;;;;;;;;4991480;28;10517;-77
2022/11/25 07:41:08;;;;;;;;;3.00;3.00;;;;;;;;4988496;28;10648;-76
2022/11/25 07:43:36;;;;;;;;;4.75;3.00;;;;;;;;4988028;28;10716;-76
2022/11/25 07:46:12;;;;;;;;;3.50;3.00;;;;;;;;5008382;28;10775;-77
2022/11/25 07:48:40;;;;;;;;;3.00;1.00;;;;;;;;5005593;28;10809;-73
2022/11/25 07:51:15;;;;;;;;;2.25;2.25;;;;;;;;5010425;28;10716;-73
2022/11/25 07:53:44;;;;;;;;;6.00;2.75;;;;;;;;5002443;28;10917;-73
2022/11/25 07:56:11;;;;;;;;;2.00;2.00;;;;;;;;4987058;28;10853;-73
2022/11/25 07:58:39;;;;;;;;;5.50;5.50;;;;;;;;5003963;28;10964;-72
2022/11/25 08:01:08;;;;;;;;;4.75;3.50;;;;;;;;5011717;28;11006;-75
2022/11/25 08:03:37;;;;;;;;;6.50;4.25;;;;;;;;4991185;28;11097;-73
2022/11/25 08:06:07;;;;;;;;;4.75;4.25;;;;;;;;5008554;28;11022;-74
2022/11/25 08:08:35;;;;;;;;;3.75;2.00;;;;;;;;4991219;28;11017;-74
2022/11/25 08:11:07;;;;;;;;;3.00;3.00;;;;;;;;5010026;28;10866;-74
2022/11/25 08:13:37;;;;;;;;;3.25;3.25;;;;;;;;4988599;28;10961;-74
2022/11/25 08:16:05;;;;;;;;;6.00;3.50;;;;;;;;5005078;28;10939;-75
2022/11/25 08:18:33;;;;;;;;;8.75;3.25;;;;;;;;5011340;28;10777;-76
2022/11/25 08:21:01;;;;;;;;;4.00;2.75;;;;;;;;5008201;28;11544;-75
2022/11/25 08:23:29;;;;;;;;;1.00;1.00;;;;;;;;5003961;28;10648;-76
2022/11/25 08:25:56;;;;;;;;;4.50;2.75;;;;;;;;5011544;28;10483;-75
2022/11/25 08:28:25;;;;;;;;;3.25;3.25;;;;;;;;5004450;28;10770;-75
2022/11/25 08:30:53;;;;;;;;;7.75;3.50;;;;;;;;5008500;28;10668;-75
2022/11/25 08:33:20;;;;;;;;;5.50;2.00;;;;;;;;5007180;28;10808;-75
2022/11/25 08:35:54;;;;;;;;;7.50;7.50;;;;;;;;5013069;28;10567;-75
2022/11/25 08:38:21;;;;;;;;;6.75;4.75;;;;;;;;5007805;28;10725;-75
2022/11/25 08:40:49;;;;;;;;;14.50;14.50;;;;;;;;4993383;28;10583;-74
2022/11/25 08:43:18;;;;;;;;;3.00;3.00;;;;;;;;4993965;28;11006;-75
2022/11/25 08:45:48;;;;;;;;;3.25;3.25;;;;;;;;5008493;28;10766;-75
2022/11/25 08:48:17;;;;;;;;;3.25;3.25;;;;;;;;5008123;28;10605;-75
2022/11/25 08:50:48;;;;;;;;;5.00;3.50;;;;;;;;5009771;28;10560;-75
2022/11/25 08:53:16;;;;;;;;;4.25;4.00;;;;;;;;4988271;28;10582;-75
2022/11/25 08:55:44;;;;;;;;;4.75;4.75;;;;;;;;5003749;28;10542;-75
2022/11/25 08:58:12;;;;;;;;;5.25;4.75;;;;;;;;4989397;28;10451;-75
2022/11/25 09:00:40;;;;;;;;;7.25;4.00;;;;;;;;5009662;28;10426;-75
2022/11/25 09:03:10;;;;;;;;;5.00;3.75;;;;;;;;5006651;28;10523;-75
2022/11/25 09:05:41;;;;;;;;;4.75;3.00;;;;;;;;5006970;28;10542;-74
2022/11/25 09:08:09;;;;;;;;;8.25;3.25;;;;;;;;4991508;28;10349;-75
2022/11/25 09:10:39;;;;;;;;;3.75;3.75;;;;;;;;5012739;28;10467;-79
2022/11/25 09:13:09;;;;;;;;;4.00;4.00;;;;;;;;5008036;28;10192;-77
2022/11/25 09:15:37;;;;;;;;;3.50;3.00;;;;;;;;5008749;28;10318;-76
2022/11/25 09:18:06;;;;;;;;;3.00;3.00;;;;;;;;5011181;28;11045;-75
2022/11/25 09:20:39;;;;;;;;;5.00;3.00;;;;;;;;5009821;28;10113;-74
2022/11/25 09:23:07;;;;;;;;;4.50;3.50;;;;;;;;5011051;28;10182;-77
2022/11/25 09:25:35;;;;;;;;;2.75;2.75;;;;;;;;5009251;28;10363;-78
2022/11/25 09:28:04;;;;;;;;;5.00;4.25;;;;;;;;5010105;28;10205;-77
2022/11/25 09:30:32;;;;;;;;;3.00;3.00;;;;;;;;5010090;28;10849;-74
2022/11/25 09:32:59;;;;;;;;;6.75;4.25;;;;;;;;5012148;28;10165;-77
2022/11/25 09:35:27;;;;;;;;;5.25;3.25;;;;;;;;5010222;28;10229;-78
2022/11/25 09:37:56;;;;;;;;;4.00;2.00;;;;;;;;4991994;28;10021;-78
2022/11/25 09:40:35;;;;;;;;;3.50;3.00;;;;;;;;5005986;28;10353;-76
2022/11/25 09:48:55;;;;;;;;;4.00;4.00;;;;;;;;5003065;28;10470;-74
2022/11/25 09:51:26;;;;;;;;;5.50;4.00;;;;;;;;5002230;28;9908;-74
2022/11/25 09:53:57;;;;;;;;;3.00;3.00;;;;;;;;4986469;28;10223;-74
2022/11/25 09:56:32;;;;;;;;;3.75;3.75;;;;;;;;5005733;28;9875;-74
2022/11/25 09:59:03;;;;;;;;;5.00;4.75;;;;;;;;4990869;28;9849;-73
2022/11/25 10:01:31;;;;;;;;;3.00;3.00;;;;;;;;5009408;28;10032;-80
2022/11/25 10:04:02;;;;;;;;;4.50;3.50;;;;;;;;5006445;28;9866;-75
2022/11/25 10:06:31;;;;;;;;;3.00;1.00;;;;;;;;5013760;28;10014;-75
2022/11/25 10:09:04;;;;;;;;;5.00;4.75;;;;;;;;4993946;28;9819;-76
2022/11/25 10:11:46;;;;;;;;;2.75;2.75;;;;;;;;5002627;28;9803;-75
2022/11/25 10:14:22;;;;;;;;;3.25;1.75;;;;;;;;5005780;28;9546;-75
2022/11/25 10:16:54;;;;;;;;;2.00;2.00;;;;;;;;4990248;28;9550;-76
2022/11/25 10:19:32;;;;;;;;;1.75;1.75;;;;;;;;4993279;28;9703;-77
2022/11/25 10:21:59;;;;;;;;;3.75;2.75;;;;;;;;5002601;28;9488;-77
2022/11/25 10:24:30;;;;;;;;;2.67;2.67;;;;;;;;5011940;28;9671;-77
2022/11/25 10:27:03;;;;;;;;;3.33;1.33;;;;;;;;4985965;28;9322;-79
2022/11/25 10:29:31;;;;;;;;;3.00;2.00;;;;;;;;5005936;28;10253;-77
2022/11/25 10:32:09;;;;;;;;;6.00;2.67;;;;;;;;5010019;28;9327;-75
2022/11/25 10:34:40;;;;;;;;;4.00;2.33;;;;;;;;5006890;28;10113;-72
2022/11/25 10:37:23;;;;;;;;;5.00;3.33;;;;;;;;5008979;28;9320;-72
2022/11/25 10:39:53;;;;;;;;;1.33;1.33;;;;;;;;5004655;28;9386;-73
2022/11/25 10:42:24;;;;;;;;;2.67;2.67;;;;;;;;4995345;28;9256;-72
2022/11/25 10:44:53;;;;;;;;;3.00;2.00;;;;;;;;5005298;28;9504;-74
2022/11/25 10:47:32;;;;;;;;;3.33;3.33;;;;;;;;5005028;28;9323;-76
2022/11/25 10:50:16;;;;;;;;;4.00;3.00;;;;;;;;4991888;28;9328;-75
2022/11/25 10:52:52;;;;;;;;;3.00;3.00;;;;;;;;4997141;28;9319;-76
2022/11/25 10:55:24;;;;;;;;;2.00;2.00;;;;;;;;5007117;28;9175;-75
2022/11/25 10:57:53;;;;;;;;;2.67;2.67;;;;;;;;5003019;28;9392;-78
2022/11/25 11:00:31;;;;;;;;;7.33;3.00;;;;;;;;5002787;28;9100;-77
2022/11/25 11:03:01;;;;;;;;;4.25;2.75;;;;;;;;4984640;28;9043;-78
2022/11/25 11:05:31;;;;;;;;;3.25;2.00;;;;;;;;5007758;28;8907;-77
2022/11/25 11:08:14;;;;;;;;;8.75;3.50;;;;;;;;5002413;28;8870;-78
2022/11/25 11:10:44;;;;;;;;;6.50;4.00;;;;;;;;5003703;28;8874;-78
2022/11/25 11:13:23;;;;;;;;;2.25;2.25;;;;;;;;5005573;28;8916;-82
2022/11/25 11:15:52;;;;;;;;;4.00;2.50;;;;;;;;5012914;28;8835;-81
2022/11/25 11:18:27;;;;;;;;;7.25;2.50;;;;;;;;5005774;28;8835;-79
2022/11/25 11:20:59;;;;;;;;;6.25;1.75;;;;;;;;5009483;28;8895;-81
2022/11/25 11:23:30;;;;;;;;;5.50;2.25;;;;;;;;5017054;28;8933;-77
2022/11/25 11:26:02;;;;;;;;;3.75;2.25;;;;;;;;5005411;28;8917;-81
2022/11/25 11:28:38;;;;;;;;;4.50;3.25;;;;;;;;5012050;28;8897;-79
2022/11/25 11:31:07;;;;;;;;;5.00;2.00;;;;;;;;5017644;28;8883;-81
2022/11/25 11:33:38;;;;;;;;;2.25;1.25;;;;;;;;5020060;28;8849;-79
2022/11/25 11:36:23;;;;;;;;;4.00;3.00;;;;;;;;5011870;28;9655;-80
2022/11/25 11:38:55;;;;;;;;;2.25;2.25;;;;;;;;5011417;28;8825;-81
2022/11/25 11:41:35;;;;;;;;;3.25;2.00;;;;;;;;5013158;28;8855;-81
2022/11/25 11:44:13;;;;;;;;;2.00;2.00;;;;;;;;5017201;28;9006;-82
2022/11/25 11:46:50;;;;;;;;;2.75;2.75;;;;;;;;5011260;28;8837;-80
2022/11/25 11:49:43;;;;;;;;;2.75;2.75;;;;;;;;4993616;28;8955;-80
2022/11/25 11:52:17;;;;;;;;;1.25;1.25;;;;;;;;4991637;28;8962;-77
2022/11/25 11:54:46;;;;;;;;;1.00;1.00;;;;;;;;5012071;28;8859;-75
2022/11/25 11:57:25;;;;;;;;;3.50;2.00;;;;;;;;4992648;28;8851;-81
2022/11/25 11:59:54;;;;;;;;;2.25;2.25;;;;;;;;4998481;28;9715;-80
2022/11/25 12:02:31;;;;;;;;;2.00;2.00;;;;;;;;5015738;28;8871;-82
2022/11/25 12:05:06;;;;;;;;;2.00;2.00;;;;;;;;4992942;28;9072;-75
2022/11/25 12:07:38;;;;;;;;;2.00;1.00;;;;;;;;4991310;28;8877;-74
2022/11/25 12:10:11;;;;;;;;;1.00;1.00;;;;;;;;5007735;28;8854;-75
2022/11/25 12:12:45;;;;;;;;;3.00;3.00;;;;;;;;5008936;28;8859;-77
2022/11/25 12:15:18;;;;;;;;;4.00;2.00;;;;;;;;5006495;28;8829;-78
2022/11/25 12:17:49;;;;;;;;;3.00;3.00;;;;;;;;5013122;28;8936;-77
2022/11/25 12:20:23;;;;;;;;;1.25;1.25;;;;;;;;5017389;28;8872;-78
2022/11/25 12:22:58;;;;;;;;;2.00;2.00;;;;;;;;5011080;28;8852;-77
2022/11/25 12:25:27;;;;;;;;;1.25;1.25;;;;;;;;5010936;28;8835;-73
2022/11/25 12:28:00;;;;;;;;;2.00;1.25;;;;;;;;5010338;28;9793;-72
2022/11/25 12:30:34;;;;;;;;;2.50;2.50;;;;;;;;5012160;28;8925;-74
2022/11/25 12:33:06;;;;;;;;;1.50;1.25;;;;;;;;4992378;28;8932;-74
2022/11/25 12:35:43;;;;;;;;;2.00;2.00;;;;;;;;5009046;28;8861;-73
2022/11/25 12:38:22;;;;;;;;;1.25;1.25;;;;;;;;5006000;28;8896;-73
2022/11/25 12:40:56;;;;;;;;;2.00;2.00;;;;;;;;4994031;28;8847;-75
2022/11/25 12:43:33;;;;;;;;;8.50;2.00;;;;;;;;5013439;28;8909;-77
2022/11/25 12:46:12;;;;;;;;;3.00;2.00;;;;;;;;4990038;28;8823;-76
2022/11/25 12:48:41;;;;;;;;;2.25;2.25;;;;;;;;4988093;28;8977;-76
2022/11/25 12:51:20;;;;;;;;;2.00;2.00;;;;;;;;5008793;28;8867;-76
2022/11/25 12:53:59;;;;;;;;;4.00;2.50;;;;;;;;4991421;28;10300;-75
2022/11/25 12:56:40;;;;;;;;;2.50;1.00;;;;;;;;5010393;28;8913;-76
2022/11/25 12:59:34;;;;;;;;;1.25;1.00;;;;;;;;5012823;28;9680;-75
2022/11/25 13:02:22;;;;;;;;;2.00;1.00;;;;;;;;5008053;28;8865;-76
2022/11/25 13:05:13;;;;;;;;;3.00;1.75;;;;;;;;5008948;28;8849;-76
2022/11/25 13:07:47;;;;;;;;;2.00;2.00;;;;;;;;4979981;28;8976;-75
2022/11/25 13:10:37;;;;;;;;;3.25;1.75;;;;;;;;5006227;28;8901;-77
2022/11/25 13:13:37;;;;;;;;;2.00;2.00;;;;;;;;5014058;28;8885;-74
2022/11/25 13:16:08;;;;;;;;;4.00;1.00;;;;;;;;5005476;28;8865;-76
2022/11/25 13:18:41;;;;;;;;;2.50;2.00;;;;;;;;5001962;28;8847;-77
2022/11/25 13:21:09;;;;;;;;;6.00;3.00;;;;;;;;5014801;28;8890;-76
2022/11/25 13:23:58;;;;;;;;;2.75;1.00;;;;;;;;5008099;28;9564;-74
2022/11/25 13:26:48;;;;;;;;;7.00;2.25;;;;;;;;5009482;28;8946;-76
2022/11/25 13:29:59;;;;;;;;;2.00;1.25;;;;;;;;5010574;28;8852;-75
2022/11/25 13:32:34;;;;;;;;;1.75;1.00;;;;;;;;5008179;28;8952;-78
2022/11/25 13:35:36;;;;;;;;;1.50;1.00;;;;;;;;5005317;28;8875;-74
2022/11/25 13:38:47;;;;;;;;;1.00;1.00;;;;;;;;4945539;28;8923;-74
2022/11/25 13:41:33;;;;;;;;;3.25;2.00;;;;;;;;4948548;28;8874;-79
2022/11/25 13:44:05;;;;;;;;;2.75;2.00;;;;;;;;4987240;28;8859;-74
2022/11/25 13:46:39;;;;;;;;;2.25;2.25;;;;;;;;4998238;28;8839;-74
2022/11/25 13:49:25;;;;;;;;;5.00;2.00;;;;;;;;5011129;28;8871;-74
2022/11/25 13:51:56;;;;;;;;;4.75;3.50;;;;;;;;5010317;28;8852;-74
2022/11/25 13:54:28;;;;;;;;;2.00;1.00;;;;;;;;4997129;28;8889;-74
2022/11/25 13:57:16;;;;;;;;;3.00;2.00;;;;;;;;5010353;28;9009;-74
2022/11/25 13:59:52;;;;;;;;;2.25;1.75;;;;;;;;4993264;28;8839;-74
2022/11/25 14:02:43;;;;;;;;;3.25;2.00;;;;;;;;5011020;28;8853;-74
2022/11/25 14:05:45;;;;;;;;;1.50;1.50;;;;;;;;5010366;28;8985;-74
2022/11/25 14:08:25;;;;;;;;;3.50;1.50;;;;;;;;4990876;28;8852;-73
2022/11/25 14:11:01;;;;;;;;;3.50;3.00;;;;;;;;5013482;28;8938;-74
2022/11/25 14:13:49;;;;;;;;;2.75;1.00;;;;;;;;5011560;28;8883;-74
2022/11/25 14:16:34;;;;;;;;;2.00;1.00;;;;;;;;4991267;28;8997;-74
2022/11/25 14:19:23;;;;;;;;;2.75;0.75;;;;;;;;5013274;28;8854;-74
2022/11/25 14:22:03;;;;;;;;;3.00;2.00;;;;;;;;5009315;28;8876;-74
2022/11/25 14:24:36;;;;;;;;;1.00;1.00;;;;;;;;5011002;28;8872;-74
2022/11/25 14:27:05;;;;;;;;;2.75;1.00;;;;;;;;5011592;28;8851;-73
2022/11/25 14:29:38;;;;;;;;;4.50;1.00;;;;;;;;5014502;28;8839;-74
2022/11/25 14:32:11;;;;;;;;;2.75;1.25;;;;;;;;4996247;28;8875;-73
2022/11/25 14:34:41;;;;;;;;;2.00;2.00;;;;;;;;5014062;28;8892;-73
2022/11/25 14:37:15;;;;;;;;;3.75;3.00;;;;;;;;4993188;28;8966;-73
2022/11/25 14:39:47;;;;;;;;;3.00;1.00;;;;;;;;5015848;28;8879;-72
2022/11/25 14:42:17;;;;;;;;;1.25;1.25;;;;;;;;5011740;28;8848;-74
2022/11/25 14:44:48;;;;;;;;;4.25;2.00;;;;;;;;5009138;28;8852;-74
2022/11/25 14:47:16;;;;;;;;;3.50;2.00;;;;;;;;5012155;28;8827;-74
2022/11/25 14:49:45;;;;;;;;;3.50;2.00;;;;;;;;4996909;28;8937;-73
2022/11/25 14:52:20;;;;;;;;;3.50;2.00;;;;;;;;5014723;28;8889;-73
2022/11/25 14:54:49;;;;;;;;;3.75;2.00;;;;;;;;5011638;28;8901;-74
2022/11/25 14:57:24;;;;;;;;;4.50;2.25;;;;;;;;4995868;28;8979;-74
2022/11/25 14:59:53;;;;;;;;;2.00;2.00;;;;;;;;4997992;28;8837;-74
2022/11/25 15:02:30;;;;;;;;;4.00;3.00;;;;;;;;4995948;28;9630;-74
2022/11/25 15:05:16;;;;;;;;;3.25;3.25;;;;;;;;5011419;28;8815;-74
2022/11/25 15:07:56;;;;;;;;;1.50;1.50;;;;;;;;4996435;28;8875;-74
2022/11/25 15:10:51;;;;;;;;;3.25;3.25;;;;;;;;5013703;28;9764;-74
2022/11/25 15:13:33;;;;;;;;;3.75;3.75;;;;;;;;5000836;28;8876;-74
2022/11/25 15:16:08;;;;;;;;;6.50;4.00;;;;;;;;5014691;28;8843;-74
2022/11/25 15:18:36;;;;;;;;;3.50;3.00;;;;;;;;4996985;28;8845;-74
2022/11/25 15:21:04;;;;;;;;;3.00;3.00;;;;;;;;5013640;28;8827;-74
2022/11/25 15:23:37;;;;;;;;;6.75;3.75;;;;;;;;5019259;28;8869;-76
2022/11/25 15:26:16;;;;;;;;;3.75;3.00;;;;;;;;5016501;28;8846;-76
2022/11/25 15:28:46;;;;;;;;;2.25;2.00;;;;;;;;5018823;28;8849;-80